Terminal Aerodrome Forecast
Issued by NWS Blacksburg, VA

Home | Current Version | Previous Version | Text Only | Print | Product List | Glossary On
Versions: 1 2 3 4 5 6 7 8 9 10 11 12 13 14 15 16 17 18 19 20 21 22 23 24 25 26 27
000
FTUS41 KRNK 280523
TAFLYH
TAF
KLYH 280523Z 2806/2906 15004KT P6SM VCSH BKN006 BKN035
     FM280800 VRB03KT 4SM BR OVC003
     FM281400 14004KT P6SM SCT007 OVC012
     FM281600 15006KT P6SM VCSH BKN015 OVC025
     FM282000 12005KT P6SM VCSH BKN040
     FM290100 15004KT P6SM SCT040 BKN080=

USA.gov is the U.S. government's official web portal to all federal, state and local government web resources and services.